createdAt,value
2023-03-13T00:02:03.916Z,8.37
2023-03-13T00:04:33.894Z,8.37
2023-03-13T00:07:02.787Z,8.49
2023-03-13T00:09:35.004Z,8.52
2023-03-13T00:12:08.207Z,8.42
2023-03-13T00:14:40.097Z,8.48
2023-03-13T00:17:25.608Z,8.54
2023-03-13T00:19:53.808Z,8.56
2023-03-13T00:22:23.608Z,8.49
2023-03-13T00:24:53.066Z,8.51
2023-03-13T00:27:29.612Z,8.41
2023-03-13T00:30:00.405Z,8.41
2023-03-13T00:32:31.047Z,8.51
2023-03-13T00:35:03.016Z,8.47
2023-03-13T00:37:40.936Z,8.60
2023-03-13T00:40:13.314Z,8.39
2023-03-13T00:42:42.916Z,8.47
2023-03-13T00:45:18.239Z,8.51
2023-03-13T00:47:57.946Z,8.45
2023-03-13T00:50:26.812Z,8.36
2023-03-13T00:52:56.503Z,8.52
2023-03-13T00:55:27.647Z,8.48
2023-03-13T00:57:58.265Z,8.58
2023-03-13T01:00:29.719Z,8.49
2023-03-13T01:03:01.632Z,8.56
2023-03-13T01:05:31.030Z,8.42
2023-03-13T01:08:04.248Z,8.45
2023-03-13T01:10:35.190Z,8.16
2023-03-13T01:13:08.068Z,8.39
2023-03-13T01:15:39.844Z,8.24
2023-03-13T01:18:26.283Z,8.32
2023-03-13T01:20:58.259Z,8.37
2023-03-13T01:23:28.373Z,8.34
2023-03-13T01:26:03.544Z,8.16
2023-03-13T01:28:40.894Z,8.24
2023-03-13T01:31:20.700Z,8.15
2023-03-13T01:34:01.257Z,8.07
2023-03-13T01:36:33.686Z,7.97
2023-03-13T01:39:05.490Z,8.06
2023-03-13T01:41:38.526Z,7.99
2023-03-13T01:44:13.512Z,8.26
2023-03-13T01:46:43.554Z,8.08
2023-03-13T01:49:45.048Z,7.92
2023-03-13T01:52:32.209Z,7.95
2023-03-13T01:55:26.660Z,7.95
2023-03-13T01:58:00.712Z,7.96
2023-03-13T02:00:35.332Z,7.89
2023-03-13T02:03:11.638Z,7.83
2023-03-13T02:05:47.155Z,7.90
2023-03-13T02:08:26.318Z,7.86
2023-03-13T02:11:05.243Z,7.82
2023-03-13T02:13:33.961Z,7.72
2023-03-13T02:16:13.592Z,7.71
2023-03-13T02:18:46.901Z,7.64
2023-03-13T02:21:32.035Z,7.79
2023-03-13T02:24:07.986Z,7.87
2023-03-13T02:26:42.893Z,7.81
2023-03-13T02:29:18.978Z,7.81
2023-03-13T02:31:56.159Z,7.85
2023-03-13T02:34:31.544Z,7.76
2023-03-13T02:37:03.258Z,7.78
2023-03-13T02:39:40.911Z,7.79
2023-03-13T02:42:18.910Z,7.93
2023-03-13T02:44:51.498Z,7.88
2023-03-13T02:47:26.594Z,7.95
2023-03-13T02:50:05.460Z,7.98
2023-03-13T02:52:46.354Z,8.12
2023-03-13T02:55:26.025Z,8.33
2023-03-13T02:57:56.663Z,8.28
2023-03-13T03:00:28.328Z,8.29
2023-03-13T03:02:59.656Z,8.22
2023-03-13T03:05:36.352Z,8.33
2023-03-13T03:08:07.331Z,8.15
2023-03-13T03:10:45.557Z,8.27
2023-03-13T03:13:21.446Z,8.22
2023-03-13T03:16:05.959Z,8.18
2023-03-13T03:18:35.374Z,8.10
2023-03-13T03:21:09.464Z,8.16
2023-03-13T03:23:52.287Z,8.28
2023-03-13T03:26:21.270Z,8.39
2023-03-13T03:28:57.356Z,8.31
2023-03-13T03:31:32.138Z,8.25
2023-03-13T03:34:01.601Z,8.32
2023-03-13T03:36:31.270Z,8.35
2023-03-13T03:39:05.360Z,8.49
2023-03-13T03:41:35.852Z,8.57
2023-03-13T03:44:07.975Z,8.76
2023-03-13T03:46:57.491Z,8.72
2023-03-13T03:49:38.174Z,8.78
2023-03-13T03:52:15.339Z,8.79
2023-03-13T03:54:51.953Z,8.85
2023-03-13T03:57:21.567Z,8.87
2023-03-13T03:59:53.998Z,8.89
2023-03-13T04:02:25.659Z,8.89
2023-03-13T04:04:58.001Z,8.91
2023-03-13T04:07:33.276Z,8.98
2023-03-13T04:10:03.691Z,8.96
2023-03-13T04:12:39.148Z,8.98
2023-03-13T04:15:15.997Z,8.90
2023-03-13T04:17:47.421Z,9.02
2023-03-13T04:20:18.546Z,8.96
2023-03-13T04:22:48.863Z,8.92
2023-03-13T04:25:20.682Z,8.92
2023-03-13T04:27:53.557Z,8.84
2023-03-13T04:30:37.846Z,8.82
2023-03-13T04:33:09.513Z,9.04
2023-03-13T04:36:16.445Z,9.03
2023-03-13T04:39:10.779Z,8.94
2023-03-13T04:42:03.743Z,9.12
2023-03-13T04:45:03.250Z,9.24
2023-03-13T04:48:05.879Z,9.19
2023-03-13T04:50:55.492Z,9.05
2023-03-13T04:53:54.413Z,9.04
2023-03-13T04:56:44.370Z,9.10
2023-03-13T04:59:33.025Z,9.05
2023-03-13T05:02:28.503Z,8.93
2023-03-13T05:05:09.901Z,9.00
2023-03-13T05:07:58.474Z,8.87
2023-03-13T05:10:48.460Z,8.89
2023-03-13T05:13:46.226Z,8.77
2023-03-13T05:16:43.624Z,8.80
2023-03-13T05:19:35.408Z,8.72
2023-03-13T05:22:41.993Z,8.79
2023-03-13T05:25:38.681Z,8.73
2023-03-13T05:28:34.132Z,8.78
2023-03-13T05:31:25.211Z,8.79
2023-03-13T05:34:14.806Z,8.83
2023-03-13T05:37:11.603Z,8.72
2023-03-13T05:39:50.496Z,8.77
2023-03-13T05:42:43.104Z,8.68
2023-03-13T05:45:37.636Z,8.79
2023-03-13T05:48:40.721Z,8.78
2023-03-13T05:51:42.604Z,8.87
2023-03-13T05:54:45.773Z,8.90
2023-03-13T05:57:37.110Z,8.90
2023-03-13T06:00:33.004Z,9.01
2023-03-13T06:03:26.441Z,9.08
2023-03-13T06:06:00.054Z,9.10
2023-03-13T06:08:40.845Z,9.11
2023-03-13T06:11:13.009Z,9.08
2023-03-13T06:13:43.944Z,9.12
2023-03-13T06:16:33.734Z,9.11
2023-03-13T06:19:37.653Z,9.17
2023-03-13T06:22:12.427Z,9.09
2023-03-13T06:24:46.134Z,9.12
2023-03-13T06:27:19.146Z,9.18
2023-03-13T06:29:52.721Z,9.17
2023-03-13T06:32:23.746Z,9.14
2023-03-13T06:35:11.950Z,9.35
2023-03-13T06:37:44.361Z,9.35
2023-03-13T06:40:21.803Z,9.34
2023-03-13T06:42:53.177Z,9.27
2023-03-13T06:45:25.974Z,9.38
2023-03-13T06:47:55.419Z,9.33
2023-03-13T06:50:29.586Z,9.33
2023-03-13T06:53:04.054Z,9.25
2023-03-13T06:55:32.534Z,9.02
2023-03-13T06:58:01.660Z,9.15
2023-03-13T07:00:38.356Z,9.20
2023-03-13T07:03:08.214Z,9.35
2023-03-13T07:05:37.529Z,9.25
2023-03-13T07:08:09.518Z,9.32
2023-03-13T07:10:38.291Z,9.34
2023-03-13T07:13:07.648Z,9.41
2023-03-13T07:15:39.632Z,9.60
2023-03-13T07:18:17.753Z,9.72
2023-03-13T07:20:48.997Z,9.81
2023-03-13T07:23:23.485Z,10.01
2023-03-13T07:25:59.032Z,10.11
2023-03-13T07:28:37.786Z,10.08
2023-03-13T07:31:15.847Z,10.08
2023-03-13T07:33:48.849Z,10.14
2023-03-13T07:36:22.393Z,10.33
2023-03-13T07:39:03.064Z,10.29
2023-03-13T07:41:31.273Z,10.38
2023-03-13T07:44:02.075Z,10.49
2023-03-13T07:46:31.750Z,10.57
2023-03-13T07:49:01.714Z,10.66
2023-03-13T07:51:42.550Z,10.68
2023-03-13T07:54:21.154Z,10.78
2023-03-13T07:56:52.023Z,10.76
2023-03-13T07:59:21.609Z,10.79
2023-03-13T08:02:03.037Z,10.90
2023-03-13T08:04:34.856Z,10.91
2023-03-13T08:07:04.323Z,11.02
2023-03-13T08:09:45.511Z,11.09
2023-03-13T08:12:14.871Z,11.18
2023-03-13T08:14:49.277Z,11.26
2023-03-13T08:17:24.821Z,11.42
2023-03-13T08:19:53.177Z,11.60
2023-03-13T08:22:24.497Z,11.53
2023-03-13T08:24:55.463Z,11.59
2023-03-13T08:27:25.229Z,11.58
2023-03-13T08:29:54.402Z,11.50
2023-03-13T08:32:37.904Z,11.53
2023-03-13T08:35:09.652Z,11.47
2023-03-13T08:37:38.875Z,11.55
2023-03-13T08:40:13.808Z,11.54
2023-03-13T08:42:45.298Z,11.50
2023-03-13T08:45:20.261Z,11.45
2023-03-13T08:47:59.196Z,11.50
2023-03-13T08:50:29.814Z,11.47
2023-03-13T08:52:59.096Z,11.49
2023-03-13T08:55:30.089Z,11.55
2023-03-13T08:58:08.896Z,11.72
2023-03-13T09:00:39.809Z,11.83
2023-03-13T09:03:11.734Z,11.95
2023-03-13T09:05:55.102Z,11.95
2023-03-13T09:08:37.342Z,11.92
2023-03-13T09:11:09.470Z,11.92
2023-03-13T09:13:42.771Z,11.94
2023-03-13T09:16:13.638Z,11.94
2023-03-13T09:18:44.991Z,11.92
2023-03-13T09:21:17.539Z,12.00
2023-03-13T09:23:47.702Z,11.95
2023-03-13T09:26:22.670Z,12.04
2023-03-13T09:28:51.647Z,11.98
2023-03-13T09:31:26.212Z,12.03
2023-03-13T09:33:59.285Z,12.09
2023-03-13T09:36:41.555Z,12.10
2023-03-13T09:39:09.746Z,12.15
2023-03-13T09:41:46.783Z,12.14
2023-03-13T09:44:20.720Z,12.10
2023-03-13T09:47:00.841Z,12.21
2023-03-13T09:49:36.472Z,12.31
2023-03-13T09:52:18.179Z,12.23
2023-03-13T09:54:52.614Z,12.42
2023-03-13T09:57:28.484Z,12.53
2023-03-13T10:00:00.712Z,12.55
2023-03-13T10:02:36.302Z,12.58
2023-03-13T10:05:21.550Z,12.40
2023-03-13T10:07:52.608Z,12.35
2023-03-13T10:10:30.766Z,12.30
2023-03-13T10:13:13.395Z,12.35
2023-03-13T10:15:46.337Z,12.44
2023-03-13T10:18:22.417Z,12.54
2023-03-13T10:21:05.219Z,12.54
2023-03-13T10:23:52.850Z,12.51
2023-03-13T10:26:29.839Z,12.51
2023-03-13T10:29:21.214Z,12.43
2023-03-13T10:32:00.332Z,12.60
2023-03-13T10:34:34.890Z,12.59
2023-03-13T10:37:09.551Z,12.73
2023-03-13T10:39:38.938Z,12.73
2023-03-13T10:42:25.690Z,12.75
2023-03-13T10:44:58.258Z,12.90
2023-03-13T10:47:31.578Z,13.00
2023-03-13T10:50:00.538Z,13.01
2023-03-13T10:52:48.692Z,13.05
2023-03-13T10:55:23.550Z,13.21
2023-03-13T10:58:04.652Z,13.26
2023-03-13T11:00:39.858Z,13.28
2023-03-13T11:03:25.471Z,13.24
2023-03-13T11:06:05.354Z,13.24
2023-03-13T11:08:49.400Z,13.17
2023-03-13T11:11:23.453Z,13.27
2023-03-13T11:13:53.056Z,13.31
2023-03-13T11:16:32.995Z,13.38
2023-03-13T11:19:27.406Z,13.41
2023-03-13T11:22:07.616Z,13.40
2023-03-13T11:24:48.128Z,13.51
2023-03-13T11:27:24.618Z,13.61
2023-03-13T11:30:02.975Z,13.69
2023-03-13T11:32:42.466Z,13.72
2023-03-13T11:35:45.054Z,13.78
2023-03-13T11:38:23.399Z,13.90
2023-03-13T11:41:03.677Z,13.87
2023-03-13T11:43:46.610Z,13.91
2023-03-13T11:46:43.498Z,13.89
2023-03-13T11:49:45.737Z,13.82
2023-03-13T11:52:23.176Z,13.78
2023-03-13T11:55:24.490Z,13.72
2023-03-13T11:58:08.253Z,13.73
2023-03-13T12:00:40.723Z,13.68
2023-03-13T12:03:24.729Z,13.78
2023-03-13T12:06:01.075Z,13.83
2023-03-13T12:08:33.322Z,13.81
2023-03-13T12:11:08.319Z,13.78
2023-03-13T12:13:45.804Z,13.70
2023-03-13T12:16:20.935Z,13.73
2023-03-13T12:18:53.437Z,13.80
2023-03-13T12:21:24.993Z,13.89
2023-03-13T12:24:02.199Z,14.02
2023-03-13T12:26:41.150Z,14.08
2023-03-13T12:29:20.398Z,14.18
2023-03-13T12:31:57.586Z,14.35
2023-03-13T12:34:36.148Z,14.34
2023-03-13T12:37:17.930Z,14.38
2023-03-13T12:39:52.400Z,14.48
2023-03-13T12:42:38.375Z,14.52
2023-03-13T12:45:10.610Z,14.54
2023-03-13T12:47:58.452Z,14.50
2023-03-13T12:50:41.792Z,14.48
2023-03-13T12:53:47.694Z,14.38
2023-03-13T12:57:10.607Z,14.25
2023-03-13T12:59:44.103Z,14.24
2023-03-13T13:02:25.813Z,14.18
2023-03-13T13:04:58.619Z,14.17
2023-03-13T13:07:31.244Z,14.13
2023-03-13T13:10:20.802Z,14.08
2023-03-13T13:13:30.281Z,14.07
2023-03-13T13:16:07.767Z,14.02
2023-03-13T13:18:40.314Z,14.01
2023-03-13T13:21:26.623Z,13.99
2023-03-13T13:24:37.663Z,13.92
2023-03-13T13:27:20.133Z,13.93
2023-03-13T13:30:24.071Z,13.87
2023-03-13T13:32:54.179Z,13.85
2023-03-13T13:35:35.841Z,13.83
2023-03-13T13:38:43.610Z,13.75
2023-03-13T13:41:47.078Z,13.77
2023-03-13T13:44:39.292Z,13.77
2023-03-13T13:47:26.802Z,13.87
2023-03-13T13:49:58.109Z,13.97
2023-03-13T13:52:43.507Z,14.10
2023-03-13T13:55:35.927Z,14.00
2023-03-13T13:58:07.216Z,14.00
2023-03-13T14:00:46.844Z,14.04
2023-03-13T14:03:29.114Z,14.10
2023-03-13T14:06:01.755Z,14.11
2023-03-13T14:08:37.876Z,14.22
2023-03-13T14:11:11.282Z,14.33
2023-03-13T14:13:40.998Z,14.39
2023-03-13T14:16:26.796Z,14.39
2023-03-13T14:19:03.495Z,14.43
2023-03-13T14:21:34.685Z,14.52
2023-03-13T14:24:23.069Z,14.49
2023-03-13T14:26:54.277Z,14.63
2023-03-13T14:29:35.374Z,14.55
2023-03-13T14:32:15.909Z,14.56
2023-03-13T14:34:47.400Z,14.53
2023-03-13T14:37:41.601Z,14.38
2023-03-13T14:40:33.332Z,14.49
2023-03-13T14:43:05.329Z,14.47
2023-03-13T14:45:44.129Z,14.40
2023-03-13T14:48:22.882Z,14.41
2023-03-13T14:51:08.869Z,14.35
2023-03-13T14:53:56.824Z,14.36
2023-03-13T14:56:44.870Z,14.36
2023-03-13T14:59:29.557Z,14.36
2023-03-13T15:02:07.275Z,14.31
2023-03-13T15:05:01.541Z,14.47
2023-03-13T15:07:40.955Z,14.44
2023-03-13T15:10:23.628Z,14.30
2023-03-13T15:12:57.978Z,14.32
2023-03-13T15:15:26.415Z,14.29
2023-03-13T15:17:57.205Z,14.34
2023-03-13T15:20:25.419Z,14.35
2023-03-13T15:22:55.276Z,14.35
2023-03-13T15:25:29.871Z,14.32
2023-03-13T15:27:59.841Z,14.24
2023-03-13T15:30:29.071Z,14.33
2023-03-13T15:32:59.557Z,14.31
2023-03-13T15:35:37.169Z,14.15
2023-03-13T15:38:11.467Z,14.20
2023-03-13T15:40:44.996Z,14.12
2023-03-13T15:43:28.882Z,14.22
2023-03-13T15:45:58.064Z,14.15
2023-03-13T15:48:28.816Z,14.20
2023-03-13T15:50:59.814Z,14.21
2023-03-13T15:53:31.310Z,14.26
2023-03-13T15:56:06.841Z,14.19
2023-03-13T15:58:51.127Z,14.17
2023-03-13T16:01:25.274Z,14.26
2023-03-13T16:03:55.825Z,14.11
2023-03-13T16:06:31.182Z,13.99
2023-03-13T16:09:03.018Z,13.95
2023-03-13T16:11:31.999Z,13.95
2023-03-13T16:14:03.060Z,13.93
2023-03-13T16:16:37.298Z,13.88
2023-03-13T16:19:08.212Z,13.85
2023-03-13T16:21:40.373Z,13.78
2023-03-13T16:24:09.735Z,13.85
2023-03-13T16:26:38.267Z,13.86
2023-03-13T16:29:20.663Z,13.88
2023-03-13T16:31:51.169Z,13.78
2023-03-13T16:34:27.025Z,13.83
2023-03-13T16:37:07.845Z,13.76
2023-03-13T16:39:36.031Z,13.72
2023-03-13T16:42:06.434Z,13.72
2023-03-13T16:44:41.639Z,13.65
2023-03-13T16:47:22.055Z,13.58
2023-03-13T16:49:53.410Z,13.52
2023-03-13T16:52:26.440Z,13.50
2023-03-13T16:54:55.090Z,13.47
2023-03-13T16:57:26.726Z,13.43
2023-03-13T17:00:01.988Z,13.40
2023-03-13T17:02:33.553Z,13.37
2023-03-13T17:05:04.769Z,13.33
2023-03-13T17:07:34.529Z,13.32
2023-03-13T17:10:06.770Z,13.32
2023-03-13T17:12:36.855Z,13.25
2023-03-13T17:15:15.146Z,13.22
2023-03-13T17:17:51.643Z,13.20
2023-03-13T17:20:23.060Z,13.13
2023-03-13T17:22:56.622Z,13.10
2023-03-13T17:25:41.069Z,13.06
2023-03-13T17:28:25.204Z,13.01
2023-03-13T17:31:04.958Z,13.05
2023-03-13T17:33:37.569Z,13.02
2023-03-13T17:36:20.734Z,12.99
2023-03-13T17:38:53.196Z,12.93
2023-03-13T17:41:32.716Z,12.95
2023-03-13T17:44:07.549Z,12.93
2023-03-13T17:46:41.209Z,12.92
2023-03-13T17:49:14.377Z,12.86
2023-03-13T17:51:49.893Z,12.84
2023-03-13T17:54:24.144Z,12.80
2023-03-13T17:56:56.323Z,12.76
2023-03-13T17:59:29.373Z,12.71
2023-03-13T18:02:07.354Z,12.68
2023-03-13T18:04:49.005Z,12.70
2023-03-13T18:07:25.964Z,12.65
2023-03-13T18:09:55.455Z,12.66
2023-03-13T18:12:42.436Z,12.67
2023-03-13T18:15:17.428Z,12.63
2023-03-13T18:18:13.127Z,12.58
2023-03-13T18:20:47.606Z,12.61
2023-03-13T18:23:23.852Z,12.58
2023-03-13T18:26:01.979Z,12.55
2023-03-13T18:28:49.609Z,12.49
2023-03-13T18:31:32.936Z,12.49
2023-03-13T18:34:18.787Z,12.47
2023-03-13T18:36:51.718Z,12.42
2023-03-13T18:39:28.552Z,12.35
2023-03-13T18:42:00.193Z,12.36
2023-03-13T18:44:30.264Z,12.33
2023-03-13T18:47:15.914Z,12.34
2023-03-13T18:49:56.015Z,12.34
2023-03-13T18:52:37.760Z,12.33
2023-03-13T18:55:18.213Z,12.30
2023-03-13T18:57:52.886Z,12.32
2023-03-13T19:00:37.614Z,12.33
2023-03-13T19:03:11.211Z,12.31
2023-03-13T19:05:49.529Z,12.25
2023-03-13T19:08:21.892Z,12.18
2023-03-13T19:10:54.764Z,12.17
2023-03-13T19:16:20.769Z,12.16
2023-03-13T19:19:05.009Z,12.15
2023-03-13T19:21:46.874Z,12.10
2023-03-13T19:24:20.679Z,12.04
2023-03-13T19:27:03.785Z,12.03
2023-03-13T19:29:46.054Z,12.00
2023-03-13T19:32:29.312Z,12.00
2023-03-13T19:35:09.702Z,12.82
2023-03-13T19:37:42.968Z,12.25
2023-03-13T19:40:31.548Z,12.05
2023-03-13T19:43:12.956Z,11.93
2023-03-13T19:45:53.313Z,11.78
2023-03-13T19:48:33.001Z,11.87
2023-03-13T19:51:27.828Z,11.86
2023-03-13T19:54:16.022Z,11.85
2023-03-13T19:56:48.713Z,11.88
2023-03-13T19:59:24.466Z,11.85
2023-03-13T20:02:09.684Z,11.74
2023-03-13T20:04:50.999Z,11.75
2023-03-13T20:07:36.233Z,11.74
2023-03-13T20:10:22.616Z,11.73
2023-03-13T20:13:03.239Z,11.75
2023-03-13T20:15:40.264Z,11.81
2023-03-13T20:18:15.217Z,11.81
2023-03-13T20:20:49.939Z,11.72
2023-03-13T20:23:31.754Z,11.75
2023-03-13T20:26:18.884Z,11.69
2023-03-13T20:28:54.008Z,11.67
2023-03-13T20:31:40.896Z,11.63
2023-03-13T20:34:22.804Z,11.70
2023-03-13T20:36:57.918Z,11.69
2023-03-13T20:39:33.480Z,11.69
2023-03-13T20:42:17.103Z,11.65
2023-03-13T20:45:10.779Z,11.62
2023-03-13T20:47:47.120Z,11.62
2023-03-13T20:50:27.572Z,11.63
2023-03-13T20:52:57.850Z,11.53
2023-03-13T20:55:32.922Z,11.56
2023-03-13T20:58:25.075Z,11.56
2023-03-13T21:01:07.463Z,11.51
2023-03-13T21:03:55.217Z,11.54
2023-03-13T21:06:31.773Z,11.49
2023-03-13T21:09:24.204Z,11.49
2023-03-13T21:12:07.691Z,11.39
2023-03-13T21:15:06.777Z,11.39
2023-03-13T21:17:46.831Z,11.42
2023-03-13T21:20:22.236Z,11.43
2023-03-13T21:22:50.541Z,11.42
2023-03-13T21:25:31.341Z,11.45
2023-03-13T21:28:06.992Z,11.57
2023-03-13T21:30:42.374Z,11.50
2023-03-13T21:33:23.251Z,11.46
2023-03-13T21:36:00.893Z,11.44
2023-03-13T21:38:39.550Z,11.49
2023-03-13T21:41:17.044Z,11.39
2023-03-13T21:43:54.652Z,11.41
2023-03-13T21:46:38.133Z,11.36
2023-03-13T21:49:12.419Z,11.28
2023-03-13T21:51:42.057Z,11.33
2023-03-13T21:54:11.761Z,11.34
2023-03-13T21:56:41.977Z,11.28
2023-03-13T21:59:16.428Z,11.23
2023-03-13T22:01:58.324Z,11.20
2023-03-13T22:04:34.106Z,11.19
2023-03-13T22:07:10.698Z,11.04
2023-03-13T22:09:46.931Z,10.94
2023-03-13T22:12:26.706Z,11.10
2023-03-13T22:15:02.600Z,10.99
2023-03-13T22:17:43.829Z,11.00
2023-03-13T22:20:21.366Z,11.08
2023-03-13T22:22:55.593Z,11.22
2023-03-13T22:25:31.824Z,11.01
2023-03-13T22:28:12.265Z,11.12
2023-03-13T22:30:45.084Z,10.90
2023-03-13T22:33:17.281Z,11.04
2023-03-13T22:35:55.585Z,10.97
2023-03-13T22:38:32.736Z,10.90
2023-03-13T22:41:08.265Z,10.82
2023-03-13T22:43:36.884Z,10.82
2023-03-13T22:46:07.200Z,11.01
2023-03-13T22:48:44.333Z,10.89
2023-03-13T22:51:15.733Z,10.85
2023-03-13T22:53:44.796Z,10.75
2023-03-13T22:56:21.191Z,10.79
2023-03-13T22:58:55.280Z,10.87
2023-03-13T23:01:35.321Z,10.79
2023-03-13T23:04:07.967Z,10.76
2023-03-13T23:06:40.816Z,10.73
2023-03-13T23:09:18.529Z,10.66
2023-03-13T23:11:57.778Z,10.73
2023-03-13T23:14:36.435Z,10.77
2023-03-13T23:17:06.246Z,10.85
2023-03-13T23:19:45.853Z,10.85
2023-03-13T23:22:22.216Z,10.76
2023-03-13T23:24:54.754Z,10.70
2023-03-13T23:27:25.399Z,10.80
2023-03-13T23:29:58.666Z,10.82
2023-03-13T23:32:29.583Z,10.74
2023-03-13T23:35:12.917Z,10.79
2023-03-13T23:37:53.949Z,10.82
2023-03-13T23:40:25.597Z,10.80
2023-03-13T23:42:57.425Z,10.82
2023-03-13T23:45:26.858Z,10.75
2023-03-13T23:47:56.558Z,10.68
2023-03-13T23:50:34.095Z,10.70
2023-03-13T23:53:03.836Z,10.79
2023-03-13T23:55:32.538Z,10.87
2023-03-13T23:58:04.231Z,10.69
